Time;durP1;ratioP1;P1;durP2;ratioP2;P2;SDS_P1;SDS_P2;PMS_P1;PMS_P2;Temp;Humidity;BMP_temperature;BMP_pressure;BME280_temperature;BME280_humidity;BME280_pressure;Samples;Min_cycle;Max_cycle;Signal;HPM_P1;HPM_P2
2021/10/13 00:00:14;;;;;;;4.80;3.35;;;6.30;99.90;;;;;;4937563;28;20046;-88
2021/10/13 00:02:40;;;;;;;6.57;4.03;;;6.30;99.90;;;;;;4924482;28;20055;-88
2021/10/13 00:05:07;;;;;;;4.97;3.30;;;6.30;99.90;;;;;;4938868;28;20085;-88
2021/10/13 00:07:33;;;;;;;4.93;3.40;;;6.30;99.90;;;;;;4909515;28;20118;-88
2021/10/13 00:09:59;;;;;;;5.30;3.30;;;6.30;99.90;;;;;;4939745;28;20462;-88
2021/10/13 00:12:26;;;;;;;4.72;3.35;;;6.30;99.90;;;;;;4949149;28;20114;-88
2021/10/13 00:14:52;;;;;;;5.95;3.53;;;6.30;99.90;;;;;;4924335;28;20030;-87
2021/10/13 00:17:18;;;;;;;5.88;3.75;;;6.20;99.90;;;;;;4954142;28;20089;-87
2021/10/13 00:19:44;;;;;;;4.93;3.25;;;6.20;99.90;;;;;;4922394;28;20039;-87
2021/10/13 00:22:10;;;;;;;5.28;3.70;;;6.10;99.90;;;;;;4923777;29;20509;-87
2021/10/13 00:24:36;;;;;;;4.63;2.85;;;6.10;99.90;;;;;;4948859;28;20027;-87
2021/10/13 00:27:02;;;;;;;6.00;3.35;;;6.10;99.90;;;;;;4933282;29;20039;-87
2021/10/13 00:29:28;;;;;;;4.90;2.90;;;6.00;99.90;;;;;;4952690;28;20632;-88
2021/10/13 00:31:54;;;;;;;5.05;3.22;;;5.90;99.90;;;;;;4911356;28;20047;-87
2021/10/13 00:34:19;;;;;;;5.38;2.97;;;5.90;99.90;;;;;;4921175;29;20035;-87
2021/10/13 00:36:45;;;;;;;5.35;3.30;;;5.80;99.90;;;;;;4952934;28;20457;-88
2021/10/13 00:39:11;;;;;;;4.40;3.00;;;5.70;99.90;;;;;;4938970;28;20030;-88
2021/10/13 00:41:37;;;;;;;4.63;3.45;;;5.70;99.90;;;;;;4924578;28;20134;-88
2021/10/13 00:44:03;;;;;;;4.15;2.85;;;5.60;99.90;;;;;;4937675;29;20035;-88
2021/10/13 00:46:29;;;;;;;5.25;3.20;;;5.60;99.90;;;;;;4935975;28;20035;-88
2021/10/13 00:48:57;;;;;;;4.75;2.88;;;5.50;99.90;;;;;;4936376;28;20042;-88
2021/10/13 00:51:23;;;;;;;3.78;2.85;;;5.40;99.90;;;;;;4940132;28;20460;-88
2021/10/13 00:53:49;;;;;;;4.22;2.80;;;5.40;99.90;;;;;;4955606;28;20054;-88
2021/10/13 00:56:14;;;;;;;5.30;3.25;;;5.40;99.90;;;;;;4910495;28;20453;-87
2021/10/13 00:58:40;;;;;;;4.40;2.90;;;5.30;99.90;;;;;;4908774;28;20065;-88
2021/10/13 01:01:16;;;;;;;4.53;2.80;;;5.30;99.90;;;;;;4910432;28;20054;-88
2021/10/13 01:03:44;;;;;;;;;;;5.30;99.90;;;;;;4951750;28;20058;-88
2021/10/13 01:06:42;;;;;;;4.05;2.95;;;5.20;99.90;;;;;;4951911;28;19969;-87
2021/10/13 01:09:38;;;;;;;4.32;2.80;;;5.20;99.90;;;;;;4950192;28;20038;-88
2021/10/13 01:12:22;;;;;;;5.30;3.05;;;5.20;99.90;;;;;;4947089;29;20039;-88
2021/10/13 01:15:13;;;;;;;5.18;2.72;;;5.10;99.90;;;;;;4964033;28;20079;-88
2021/10/13 01:18:00;;;;;;;3.78;2.60;;;5.10;99.90;;;;;;4955903;28;20023;-88
2021/10/13 01:20:42;;;;;;;4.75;2.72;;;5.10;99.90;;;;;;4954235;28;20046;-89
2021/10/13 01:23:32;;;;;;;3.60;2.83;;;5.10;99.90;;;;;;4946879;28;20031;-88
2021/10/13 01:26:23;;;;;;;2.17;1.73;;;5.00;99.90;;;;;;4927990;28;20441;-88
2021/10/13 01:28:51;;;;;;;2.45;1.77;;;5.00;99.90;;;;;;4937255;28;20041;-88
2021/10/13 01:31:22;;;;;;;2.00;1.63;;;4.90;99.90;;;;;;4936075;29;20028;-88
2021/10/13 01:33:47;;;;;;;2.30;1.70;;;4.90;99.90;;;;;;4961379;28;20129;-89
2021/10/13 01:36:18;;;;;;;2.50;1.75;;;4.90;99.90;;;;;;4949108;28;20122;-88
2021/10/13 01:38:50;;;;;;;2.00;1.50;;;4.80;99.90;;;;;;4951590;28;20058;-88
2021/10/13 01:41:18;;;;;;;2.03;1.30;;;4.80;99.90;;;;;;4928235;29;20054;-88
2021/10/13 01:43:49;;;;;;;2.75;1.73;;;4.70;99.90;;;;;;4923834;28;20441;-87
2021/10/13 01:46:16;;;;;;;3.15;2.03;;;4.70;99.90;;;;;;4936142;28;20043;-88
2021/10/13 01:48:59;;;;;;;3.28;2.40;;;4.60;99.90;;;;;;4926565;28;20040;-89
2021/10/13 01:51:27;;;;;;;3.08;2.22;;;4.60;99.90;;;;;;4939205;28;20122;-85
2021/10/13 01:53:54;;;;;;;3.70;2.35;;;4.50;99.90;;;;;;4939279;28;20129;-88
2021/10/13 01:56:24;;;;;;;9.07;2.00;;;4.50;99.90;;;;;;4943166;28;20522;-88
2021/10/13 01:58:52;;;;;;;15.50;2.10;;;4.50;99.90;;;;;;4955640;28;20481;-88
2021/10/13 02:01:22;;;;;;;3.13;2.00;;;4.30;99.90;;;;;;4960994;28;20037;-87
2021/10/13 02:03:50;;;;;;;12.73;1.88;;;4.40;99.90;;;;;;4927509;28;20375;-87
2021/10/13 02:06:17;;;;;;;3.90;1.95;;;4.40;99.90;;;;;;4924281;28;20036;-87
2021/10/13 02:08:43;;;;;;;2.70;1.90;;;4.40;99.90;;;;;;4926241;28;20061;-89
2021/10/13 02:11:10;;;;;;;3.25;2.22;;;4.50;99.90;;;;;;4961159;28;20027;-87
2021/10/13 02:13:37;;;;;;;3.03;1.88;;;4.50;99.90;;;;;;4939389;29;20409;-89
2021/10/13 02:16:05;;;;;;;2.95;2.15;;;4.60;99.90;;;;;;4941714;28;20042;-88
2021/10/13 02:18:33;;;;;;;3.47;2.08;;;4.60;99.90;;;;;;4929260;28;20038;-88
2021/10/13 02:21:01;;;;;;;2.80;1.95;;;4.60;99.90;;;;;;4922504;28;20071;-87
2021/10/13 02:23:32;;;;;;;2.83;1.80;;;4.60;99.90;;;;;;4923614;29;20130;-89
2021/10/13 02:26:04;;;;;;;17.13;2.53;;;4.50;99.90;;;;;;4938554;28;20478;-87
2021/10/13 02:28:33;;;;;;;2.20;1.85;;;4.50;99.90;;;;;;4941478;28;20031;-87
2021/10/13 02:30:59;;;;;;;3.85;2.30;;;4.50;99.90;;;;;;4940071;28;20050;-87
2021/10/13 02:33:26;;;;;;;1.38;1.25;;;4.60;99.90;;;;;;4926257;28;20042;-87
2021/10/13 02:35:51;;;;;;;2.78;1.83;;;4.60;99.90;;;;;;4927515;28;20664;-88
2021/10/13 02:38:17;;;;;;;2.85;1.83;;;4.70;99.90;;;;;;4922815;28;20133;-88
2021/10/13 02:40:43;;;;;;;4.78;1.80;;;4.70;99.90;;;;;;4930730;28;20055;-87
2021/10/13 02:43:10;;;;;;;3.67;2.13;;;4.70;99.90;;;;;;4954751;28;20039;-87
2021/10/13 02:45:40;;;;;;;4.57;3.03;;;4.70;99.90;;;;;;4937703;28;20182;-87
2021/10/13 02:48:31;;;;;;;7.43;2.75;;;4.80;99.90;;;;;;4946557;28;20035;-89
2021/10/13 02:51:09;;;;;;;5.15;3.00;;;4.80;99.90;;;;;;4934139;28;20409;-87
2021/10/13 02:53:51;;;;;;;5.35;2.67;;;4.80;99.90;;;;;;4942034;28;20647;-87
2021/10/13 02:56:23;;;;;;;3.30;2.38;;;4.90;99.90;;;;;;4943420;28;20089;-88
2021/10/13 02:59:05;;;;;;;4.55;2.25;;;4.90;99.90;;;;;;4924400;28;20042;-87
2021/10/13 03:01:37;;;;;;;2.25;1.90;;;4.90;99.90;;;;;;4951828;28;20050;-87
2021/10/13 03:04:06;;;;;;;3.08;1.75;;;4.90;99.90;;;;;;4942035;28;20126;-88
2021/10/13 03:06:43;;;;;;;2.67;2.08;;;5.00;99.90;;;;;;4949134;28;20553;-89
2021/10/13 03:09:09;;;;;;;2.83;2.00;;;5.00;99.90;;;;;;4940251;28;20544;-87
2021/10/13 03:11:37;;;;;;;2.60;2.22;;;5.00;99.90;;;;;;4935789;28;20401;-88
2021/10/13 03:14:05;;;;;;;4.05;2.05;;;5.10;99.90;;;;;;4941230;28;20122;-87
2021/10/13 03:16:33;;;;;;;3.72;2.30;;;5.10;99.90;;;;;;4927877;28;20051;-88
2021/10/13 03:19:00;;;;;;;3.40;2.35;;;5.10;99.90;;;;;;4952476;28;20030;-88
2021/10/13 03:21:30;;;;;;;2.00;1.80;;;5.10;99.90;;;;;;4926237;28;20035;-88
2021/10/13 03:23:55;;;;;;;2.28;1.80;;;5.10;99.90;;;;;;4925980;28;20125;-89
2021/10/13 03:26:22;;;;;;;2.15;1.65;;;5.10;99.90;;;;;;4955496;28;20178;-89
2021/10/13 03:28:47;;;;;;;2.40;1.52;;;5.10;99.90;;;;;;4953115;28;20109;-89
2021/10/13 03:31:13;;;;;;;2.30;1.60;;;5.10;99.90;;;;;;4941424;28;20122;-89
2021/10/13 03:33:39;;;;;;;3.38;2.00;;;5.10;99.90;;;;;;4941261;28;20090;-89
2021/10/13 03:36:07;;;;;;;2.10;1.70;;;5.10;99.90;;;;;;4956331;28;20665;-88
2021/10/13 03:38:33;;;;;;;2.28;1.73;;;5.10;99.90;;;;;;4936738;28;20035;-89
2021/10/13 03:40:59;;;;;;;2.05;1.33;;;5.10;99.90;;;;;;4925587;28;20035;-88
2021/10/13 03:43:25;;;;;;;2.63;1.70;;;5.00;99.90;;;;;;4929752;28;20034;-89
2021/10/13 03:45:51;;;;;;;2.45;1.80;;;5.00;99.90;;;;;;4939417;28;20031;-90
2021/10/13 03:48:19;;;;;;;3.72;1.92;;;4.90;99.90;;;;;;4939184;28;20038;-87
2021/10/13 03:50:45;;;;;;;1.88;1.50;;;4.90;99.90;;;;;;4941723;28;20589;-88
2021/10/13 03:53:10;;;;;;;3.00;2.30;;;4.90;99.90;;;;;;4937666;29;20654;-89
2021/10/13 03:55:36;;;;;;;3.08;1.95;;;4.90;99.90;;;;;;4955897;28;20429;-89
2021/10/13 03:58:02;;;;;;;4.03;2.40;;;4.80;99.90;;;;;;4923559;28;20497;-89
2021/10/13 04:00:28;;;;;;;3.55;1.85;;;4.80;99.90;;;;;;4940509;28;20046;-89
2021/10/13 04:02:54;;;;;;;2.72;2.10;;;4.80;99.90;;;;;;4940531;28;20034;-88
2021/10/13 04:05:19;;;;;;;2.67;2.00;;;4.70;99.90;;;;;;4939818;28;20093;-88
2021/10/13 04:07:45;;;;;;;3.25;2.47;;;4.60;99.90;;;;;;4939284;28;20040;-88
2021/10/13 04:10:13;;;;;;;2.42;2.00;;;4.60;99.90;;;;;;4924254;28;20154;-88
2021/10/13 04:12:39;;;;;;;2.35;2.00;;;4.60;99.90;;;;;;4930510;28;20417;-88
2021/10/13 04:15:07;;;;;;;2.45;1.80;;;4.60;99.90;;;;;;4936980;28;20046;-88
2021/10/13 04:17:33;;;;;;;2.67;2.25;;;4.60;99.90;;;;;;4925299;28;20054;-88
2021/10/13 04:20:10;;;;;;;3.25;2.00;;;4.60;99.90;;;;;;4939413;28;20026;-88
2021/10/13 04:22:36;;;;;;;3.08;2.22;;;4.60;99.90;;;;;;4939950;28;20022;-88
2021/10/13 04:25:04;;;;;;;3.40;2.72;;;4.60;99.90;;;;;;4931340;28;20453;-89
2021/10/13 04:27:29;;;;;;;3.88;2.60;;;4.60;99.90;;;;;;4951267;28;20046;-88
2021/10/13 04:29:55;;;;;;;3.25;2.40;;;4.70;99.90;;;;;;4900114;29;20486;-89
2021/10/13 04:32:21;;;;;;;2.92;2.17;;;4.70;99.90;;;;;;4933209;28;20082;-89
2021/10/13 04:34:48;;;;;;;3.70;2.63;;;4.70;99.90;;;;;;4953695;28;20034;-88
2021/10/13 04:37:18;;;;;;;3.67;2.08;;;4.70;99.90;;;;;;4931459;28;20085;-88
2021/10/13 04:39:44;;;;;;;2.30;1.80;;;4.80;99.90;;;;;;4955007;28;20038;-87
2021/10/13 04:42:09;;;;;;;2.25;1.85;;;4.80;99.90;;;;;;4936382;29;20035;-88
2021/10/13 04:44:35;;;;;;;3.17;2.00;;;4.80;99.90;;;;;;4939757;28;20035;-87
2021/10/13 04:47:01;;;;;;;3.47;2.10;;;4.80;99.90;;;;;;4925135;28;20061;-88
2021/10/13 04:49:26;;;;;;;3.03;2.20;;;4.80;99.90;;;;;;4941504;28;20035;-89
2021/10/13 04:51:52;;;;;;;5.38;2.00;;;4.80;99.90;;;;;;4939400;28;20027;-88
2021/10/13 04:54:19;;;;;;;2.95;2.10;;;4.80;99.90;;;;;;4924085;28;20034;-88
2021/10/13 04:56:45;;;;;;;3.28;2.35;;;4.80;99.90;;;;;;4921724;28;20035;-88
2021/10/13 04:59:10;;;;;;;3.75;2.35;;;4.80;99.90;;;;;;4938864;28;20544;-88
2021/10/13 05:01:36;;;;;;;6.75;2.40;;;4.80;99.90;;;;;;4939506;28;20090;-89
2021/10/13 05:04:02;;;;;;;2.50;1.85;;;4.80;99.90;;;;;;4924199;28;20042;-88
2021/10/13 05:06:28;;;;;;;3.80;2.38;;;4.80;99.90;;;;;;4940524;28;20126;-88
2021/10/13 05:08:53;;;;;;;4.13;2.30;;;4.90;99.90;;;;;;4936821;28;20054;-88
2021/10/13 05:11:19;;;;;;;6.53;2.83;;;4.90;99.90;;;;;;4925470;28;20042;-89
2021/10/13 05:13:45;;;;;;;2.95;2.30;;;4.90;99.90;;;;;;4940487;28;20035;-87
2021/10/13 05:16:10;;;;;;;5.28;2.70;;;4.90;99.90;;;;;;4935660;28;20031;-88
2021/10/13 05:18:36;;;;;;;4.13;2.47;;;4.90;99.90;;;;;;4945187;28;20038;-88
2021/10/13 05:21:02;;;;;;;3.75;2.58;;;4.90;99.90;;;;;;4927016;28;20042;-88
2021/10/13 05:23:28;;;;;;;3.15;2.58;;;5.00;99.90;;;;;;4957837;28;20038;-88
2021/10/13 05:25:54;;;;;;;3.88;2.50;;;5.00;99.90;;;;;;4935397;29;20039;-88
2021/10/13 05:28:20;;;;;;;4.25;2.75;;;5.00;99.90;;;;;;4935349;28;20039;-87
2021/10/13 05:30:46;;;;;;;4.57;2.70;;;5.00;99.90;;;;;;4923318;28;20049;-88
2021/10/13 05:33:12;;;;;;;3.25;2.63;;;5.00;99.90;;;;;;4956228;28;20486;-89
2021/10/13 05:35:38;;;;;;;3.55;2.58;;;5.00;99.90;;;;;;4941012;28;20041;-87
2021/10/13 05:38:05;;;;;;;3.10;2.40;;;5.00;99.90;;;;;;4957736;28;20047;-88
2021/10/13 05:40:31;;;;;;;3.72;2.70;;;5.10;99.90;;;;;;4923895;28;20480;-89
2021/10/13 05:42:57;;;;;;;3.88;2.50;;;5.10;99.90;;;;;;4942916;28;20070;-88
2021/10/13 05:45:23;;;;;;;4.10;2.67;;;5.10;99.90;;;;;;4953487;28;20249;-87
2021/10/13 05:47:49;;;;;;;4.55;3.05;;;5.10;99.90;;;;;;4954725;28;20035;-87
2021/10/13 05:50:14;;;;;;;5.40;2.78;;;5.20;99.90;;;;;;4940261;28;20129;-89
2021/10/13 05:52:40;;;;;;;4.57;3.28;;;5.20;99.90;;;;;;4958400;28;20027;-88
2021/10/13 05:55:06;;;;;;;4.85;3.22;;;5.20;99.90;;;;;;4937570;28;20034;-88
2021/10/13 05:57:32;;;;;;;5.50;3.70;;;5.20;99.90;;;;;;4926023;28;20065;-88
2021/10/13 05:59:59;;;;;;;5.85;3.55;;;5.20;99.90;;;;;;4926024;28;20059;-88
2021/10/13 06:02:28;;;;;;;4.95;3.35;;;5.20;99.90;;;;;;4958056;28;20022;-88
2021/10/13 06:04:53;;;;;;;4.32;3.15;;;5.20;99.90;;;;;;4957575;28;20034;-88
2021/10/13 06:07:19;;;;;;;5.07;3.22;;;5.20;99.90;;;;;;4957440;28;20039;-87
2021/10/13 06:09:45;;;;;;;4.93;3.42;;;5.20;99.90;;;;;;4941240;28;20110;-89
2021/10/13 06:12:11;;;;;;;5.82;3.85;;;5.30;99.90;;;;;;4958189;28;20038;-88
2021/10/13 06:14:37;;;;;;;5.40;3.28;;;5.30;99.90;;;;;;4952242;28;20024;-88
2021/10/13 06:17:06;;;;;;;5.80;3.53;;;5.30;99.90;;;;;;4955626;28;20069;-88
2021/10/13 06:19:31;;;;;;;4.57;3.00;;;5.40;99.90;;;;;;4920652;28;20047;-88
2021/10/13 06:21:57;;;;;;;3.85;2.90;;;5.40;99.90;;;;;;4944588;28;20035;-88
2021/10/13 06:24:23;;;;;;;7.10;4.03;;;5.40;99.90;;;;;;4928232;29;20447;-88
2021/10/13 06:26:48;;;;;;;5.38;3.42;;;5.40;99.90;;;;;;4944263;28;20042;-88
2021/10/13 06:29:14;;;;;;;5.00;3.28;;;5.50;99.90;;;;;;4926945;28;20034;-88
2021/10/13 06:31:40;;;;;;;5.22;3.13;;;5.50;99.90;;;;;;4944264;28;20114;-88
2021/10/13 06:34:06;;;;;;;4.28;3.35;;;5.50;99.90;;;;;;4957807;28;20117;-86
2021/10/13 06:36:32;;;;;;;3.13;2.33;;;5.50;99.90;;;;;;4940193;28;20079;-88
2021/10/13 06:38:57;;;;;;;4.55;2.83;;;5.50;99.90;;;;;;4925213;28;20081;-88
2021/10/13 06:41:26;;;;;;;4.57;2.95;;;5.50;99.90;;;;;;4947096;28;20035;-88
2021/10/13 06:43:52;;;;;;;4.65;2.88;;;5.50;99.90;;;;;;4957570;28;20266;-88
2021/10/13 06:46:18;;;;;;;4.22;2.90;;;5.50;99.90;;;;;;4925878;28;20505;-88
2021/10/13 06:48:43;;;;;;;4.78;2.42;;;5.60;99.90;;;;;;4940443;28;20445;-88
2021/10/13 06:51:09;;;;;;;3.50;2.47;;;5.60;99.90;;;;;;4940944;28;20035;-88
2021/10/13 06:53:35;;;;;;;3.28;2.45;;;5.70;99.90;;;;;;4944281;28;20027;-88
2021/10/13 06:56:01;;;;;;;3.20;2.42;;;5.60;99.90;;;;;;4937907;28;20035;-88
2021/10/13 06:58:28;;;;;;;4.07;2.35;;;5.70;99.90;;;;;;4925268;28;20038;-88
2021/10/13 07:00:54;;;;;;;3.53;2.60;;;5.70;99.90;;;;;;4953236;28;20089;-88
2021/10/13 07:03:19;;;;;;;4.88;2.55;;;5.70;99.90;;;;;;4957559;28;20030;-88
2021/10/13 07:05:45;;;;;;;5.43;3.38;;;5.80;99.90;;;;;;4924793;28;20501;-88
2021/10/13 07:08:11;;;;;;;5.18;3.00;;;5.80;99.90;;;;;;4923186;28;20042;-88
2021/10/13 07:10:37;;;;;;;4.43;3.00;;;5.80;99.90;;;;;;4925066;28;20034;-88
2021/10/13 07:13:02;;;;;;;5.13;3.63;;;5.90;99.90;;;;;;4925524;28;20038;-88
2021/10/13 07:15:28;;;;;;;4.10;2.90;;;5.90;99.90;;;;;;4955197;28;20046;-88
2021/10/13 07:17:54;;;;;;;5.90;3.22;;;5.90;99.90;;;;;;4936648;28;20027;-88
2021/10/13 07:20:22;;;;;;;4.93;2.97;;;5.90;99.90;;;;;;4956686;28;20036;-88
2021/10/13 07:22:48;;;;;;;3.65;2.80;;;6.00;99.90;;;;;;4941410;28;20039;-88
2021/10/13 07:25:16;;;;;;;5.32;2.92;;;6.10;99.90;;;;;;4924125;28;20031;-88
2021/10/13 07:27:42;;;;;;;5.68;3.80;;;6.10;99.90;;;;;;4958327;28;20034;-88
2021/10/13 07:30:11;;;;;;;6.07;3.90;;;6.20;99.90;;;;;;4917181;28;20089;-89
2021/10/13 07:32:38;;;;;;;8.57;4.20;;;6.30;99.90;;;;;;4941159;28;20402;-89
2021/10/13 07:35:04;;;;;;;7.35;3.42;;;6.30;99.90;;;;;;4936505;29;20068;-89
2021/10/13 07:37:29;;;;;;;5.53;3.60;;;6.30;99.90;;;;;;4918333;28;20039;-88
2021/10/13 07:39:55;;;;;;;5.03;3.47;;;6.30;99.90;;;;;;4947020;28;20035;-89
2021/10/13 07:42:22;;;;;;;9.05;3.20;;;6.40;99.90;;;;;;4939636;28;20039;-90
2021/10/13 07:44:48;;;;;;;4.30;3.20;;;6.40;99.90;;;;;;4930626;28;20050;-88
2021/10/13 07:47:14;;;;;;;5.97;3.75;;;6.40;99.90;;;;;;4920241;28;20042;-88
2021/10/13 07:49:40;;;;;;;4.88;3.30;;;6.50;99.90;;;;;;4954226;28;20031;-88
2021/10/13 07:52:06;;;;;;;5.13;3.42;;;6.60;99.90;;;;;;4933957;28;20608;-88
2021/10/13 07:54:36;;;;;;;4.43;3.20;;;6.60;99.90;;;;;;4931274;28;20036;-88
2021/10/13 07:57:01;;;;;;;4.38;3.15;;;6.60;99.90;;;;;;4935638;28;20118;-89
2021/10/13 07:59:27;;;;;;;5.10;3.63;;;6.70;99.90;;;;;;4952647;28;20125;-88
2021/10/13 08:01:53;;;;;;;5.40;3.35;;;6.70;99.90;;;;;;4941324;28;20073;-88
2021/10/13 08:04:21;;;;;;;6.68;3.45;;;6.70;99.90;;;;;;4938729;28;20082;-89
2021/10/13 08:06:47;;;;;;;4.75;3.28;;;6.70;99.90;;;;;;4951940;28;20058;-88
2021/10/13 08:09:13;;;;;;;5.20;3.05;;;6.70;99.90;;;;;;4919557;28;20070;-90
2021/10/13 08:11:39;;;;;;;6.25;3.42;;;6.80;99.90;;;;;;4928837;28;20038;-88
2021/10/13 08:14:05;;;;;;;3.50;2.90;;;6.90;99.90;;;;;;4935550;28;20090;-88
2021/10/13 08:16:31;;;;;;;4.78;2.83;;;6.90;99.90;;;;;;4917683;28;20023;-89
2021/10/13 08:18:57;;;;;;;5.03;3.33;;;7.00;99.90;;;;;;4953626;28;20034;-89
2021/10/13 08:21:23;;;;;;;5.10;3.53;;;7.00;99.90;;;;;;4925332;28;20082;-89
2021/10/13 08:23:49;;;;;;;4.13;2.88;;;7.10;99.90;;;;;;4922872;28;20035;-89
2021/10/13 08:26:14;;;;;;;3.78;2.92;;;7.10;99.90;;;;;;4938807;28;20038;-88
2021/10/13 08:28:42;;;;;;;6.05;3.38;;;7.10;99.90;;;;;;4950180;28;20122;-88
2021/10/13 08:31:09;;;;;;;4.90;3.75;;;7.20;99.90;;;;;;4953788;28;20037;-88
2021/10/13 08:33:35;;;;;;;4.30;2.90;;;7.30;99.90;;;;;;4932376;28;20118;-88
2021/10/13 08:36:01;;;;;;;4.25;3.25;;;7.40;99.90;;;;;;4934644;28;20031;-89
2021/10/13 08:38:27;;;;;;;6.38;3.67;;;7.40;99.90;;;;;;4937819;28;20576;-88
2021/10/13 08:40:53;;;;;;;7.13;3.20;;;7.60;99.90;;;;;;4952548;28;20055;-89
2021/10/13 08:43:19;;;;;;;4.30;3.17;;;7.70;99.90;;;;;;4935601;28;20031;-89
2021/10/13 08:45:44;;;;;;;4.15;2.97;;;7.70;99.90;;;;;;4963473;28;20033;-89
2021/10/13 08:48:10;;;;;;;4.60;2.90;;;7.80;99.90;;;;;;4919754;29;20049;-89
2021/10/13 08:50:38;;;;;;;6.07;3.78;;;7.90;99.90;;;;;;4932846;28;20093;-89
2021/10/13 08:53:07;;;;;;;3.88;2.72;;;8.00;99.90;;;;;;4932026;28;20031;-89
2021/10/13 08:55:35;;;;;;;4.63;3.38;;;8.10;99.90;;;;;;4931869;28;20037;-88
2021/10/13 08:58:28;;;;;;;6.25;3.60;;;8.10;99.90;;;;;;4934874;28;20035;-88
2021/10/13 09:01:03;;;;;;;4.38;3.35;;;8.20;99.90;;;;;;4932735;28;20047;-89
2021/10/13 09:03:31;;;;;;;5.53;3.40;;;8.30;99.90;;;;;;4933107;28;20027;-89
2021/10/13 09:05:58;;;;;;;4.70;3.55;;;8.30;99.90;;;;;;4933894;28;20038;-90
2021/10/13 09:08:26;;;;;;;5.15;3.15;;;8.40;99.90;;;;;;4933020;28;20034;-88
2021/10/13 09:10:56;;;;;;;5.13;3.45;;;8.40;99.90;;;;;;4949350;28;21465;-89
2021/10/13 09:13:22;;;;;;;5.65;3.53;;;8.50;99.90;;;;;;4936465;28;20043;-89
2021/10/13 09:15:50;;;;;;;4.32;3.10;;;8.50;99.90;;;;;;4919374;28;20050;-88
2021/10/13 09:18:20;;;;;;;4.95;3.35;;;8.60;99.90;;;;;;4936094;28;20085;-89
2021/10/13 09:20:52;;;;;;;4.07;3.05;;;8.60;99.90;;;;;;4952271;28;20055;-88
2021/10/13 09:23:29;;;;;;;3.90;3.25;;;8.60;99.90;;;;;;4934646;29;20078;-90
2021/10/13 09:26:05;;;;;;;6.43;3.13;;;8.50;99.90;;;;;;4930659;28;20101;-89
2021/10/13 09:28:31;;;;;;;4.00;3.10;;;8.40;99.90;;;;;;4933340;28;20034;-87
2021/10/13 09:31:18;;;;;;;3.88;2.67;;;8.30;99.90;;;;;;4954793;28;20113;-89
2021/10/13 09:33:55;;;;;;;4.57;3.70;;;8.30;99.90;;;;;;4967894;28;20038;-88
2021/10/13 09:36:21;;;;;;;4.60;2.88;;;8.20;99.90;;;;;;4934792;28;20055;-88
2021/10/13 09:38:47;;;;;;;6.50;4.00;;;8.20;99.90;;;;;;4951141;28;20078;-87
2021/10/13 09:41:12;;;;;;;5.70;3.67;;;8.30;99.90;;;;;;4952437;28;20031;-88
2021/10/13 09:43:39;;;;;;;5.93;3.63;;;8.40;99.90;;;;;;4933659;28;20083;-89
2021/10/13 09:46:08;;;;;;;5.03;3.70;;;8.60;99.90;;;;;;4936598;28;20042;-89
2021/10/13 09:48:39;;;;;;;4.97;3.55;;;8.70;99.90;;;;;;4924550;28;20045;-88
2021/10/13 09:51:12;;;;;;;5.07;3.00;;;8.70;99.90;;;;;;4933872;28;20027;-87
2021/10/13 09:53:38;;;;;;;3.10;2.67;;;8.60;99.90;;;;;;4965267;28;20553;-88
2021/10/13 09:56:03;;;;;;;4.03;3.25;;;8.60;99.90;;;;;;4947335;28;20134;-86
2021/10/13 09:58:36;;;;;;;5.70;3.40;;;8.50;99.90;;;;;;4905795;28;20039;-87
2021/10/13 10:01:13;;;;;;;5.95;3.38;;;8.50;99.90;;;;;;4961063;28;20035;-89
2021/10/13 10:03:45;;;;;;;6.22;4.30;;;8.50;99.90;;;;;;4949215;28;20039;-88
2021/10/13 10:06:11;;;;;;;5.70;4.47;;;8.60;99.90;;;;;;4963837;28;20035;-89
2021/10/13 10:08:56;;;;;;;5.90;4.15;;;8.70;99.90;;;;;;4949530;28;20042;-88
2021/10/13 10:11:33;;;;;;;8.40;3.83;;;8.80;99.90;;;;;;4937386;28;20089;-88
2021/10/13 10:14:21;;;;;;;5.03;3.22;;;8.90;99.90;;;;;;4921535;28;20090;-87
2021/10/13 10:16:49;;;;;;;4.53;3.55;;;8.80;99.90;;;;;;4921522;28;20035;-87
2021/10/13 10:19:29;;;;;;;6.50;3.78;;;8.90;99.90;;;;;;4922522;28;20038;-89
2021/10/13 10:22:18;;;;;;;7.05;3.63;;;8.80;99.90;;;;;;4942417;28;20394;-87
2021/10/13 10:24:53;;;;;;;4.40;3.35;;;8.80;99.90;;;;;;4926629;28;20035;-86
2021/10/13 10:27:29;;;;;;;6.60;3.70;;;8.70;99.90;;;;;;4924797;28;20049;-86
2021/10/13 10:30:07;;;;;;;5.28;3.72;;;8.70;99.90;;;;;;4954975;28;20097;-87
2021/10/13 10:32:34;;;;;;;5.43;3.42;;;8.80;99.90;;;;;;4940934;28;20019;-87
2021/10/13 10:35:06;;;;;;;6.25;3.70;;;8.80;99.90;;;;;;4957065;28;20026;-86
2021/10/13 10:37:46;;;;;;;4.50;3.65;;;8.90;99.90;;;;;;4938825;29;20023;-86
2021/10/13 10:40:25;;;;;;;4.35;3.28;;;9.00;99.90;;;;;;4970576;28;20034;-86
2021/10/13 10:42:54;;;;;;;4.65;3.63;;;9.10;99.90;;;;;;4942243;28;20038;-87
2021/10/13 10:45:24;;;;;;;4.07;3.20;;;9.20;99.90;;;;;;4956990;28;20493;-86
2021/10/13 10:47:54;;;;;;;6.55;3.38;;;9.20;99.90;;;;;;4939626;28;20085;-87
2021/10/13 10:50:32;;;;;;;5.05;3.17;;;9.20;99.90;;;;;;4955284;28;20480;-87
2021/10/13 10:53:20;;;;;;;5.05;2.90;;;9.10;99.90;;;;;;4956911;28;20505;-87
2021/10/13 10:55:47;;;;;;;3.78;3.08;;;9.10;99.90;;;;;;4943206;28;20101;-86
2021/10/13 10:58:24;;;;;;;4.82;3.17;;;9.10;99.90;;;;;;4955262;28;20027;-86
2021/10/13 11:01:00;;;;;;;4.13;3.00;;;9.00;99.90;;;;;;4955793;28;20031;-86
2021/10/13 11:03:30;;;;;;;5.57;2.97;;;9.10;99.90;;;;;;4949109;28;20046;-86
2021/10/13 11:06:07;;;;;;;3.35;2.55;;;9.20;99.90;;;;;;4939463;28;20038;-86
2021/10/13 11:08:33;;;;;;;3.63;2.83;;;9.30;99.90;;;;;;4954984;28;20538;-87
2021/10/13 11:11:13;;;;;;;3.22;2.30;;;9.40;99.90;;;;;;4940444;28;20122;-86
2021/10/13 11:13:39;;;;;;;3.72;2.30;;;9.40;99.90;;;;;;4934620;28;20030;-86
2021/10/13 11:16:09;;;;;;;2.58;2.10;;;9.40;99.90;;;;;;4937634;28;20031;-87
2021/10/13 11:18:34;;;;;;;2.90;2.17;;;9.30;99.90;;;;;;4930672;28;20207;-86
2021/10/13 11:21:10;;;;;;;3.28;1.63;;;9.20;99.90;;;;;;4939794;28;20603;-86
2021/10/13 11:23:36;;;;;;;3.15;1.40;;;9.10;99.90;;;;;;4954203;28;20049;-86
2021/10/13 11:26:02;;;;;;;1.27;1.00;;;8.90;99.90;;;;;;4942007;28;20496;-86
2021/10/13 11:28:36;;;;;;;1.77;1.15;;;8.70;99.90;;;;;;4934656;28;20038;-86
2021/10/13 11:31:06;;;;;;;0.93;0.75;;;8.60;99.90;;;;;;4953049;28;20118;-86
2021/10/13 11:33:33;;;;;;;1.75;0.90;;;8.50;99.90;;;;;;4954323;28;20052;-86
2021/10/13 11:36:05;;;;;;;0.80;0.80;;;8.40;99.90;;;;;;4953426;28;20037;-86
2021/10/13 11:38:33;;;;;;;0.95;0.70;;;8.30;99.90;;;;;;4952286;28;20027;-86
2021/10/13 11:41:13;;;;;;;1.00;0.77;;;8.40;99.90;;;;;;4920316;28;20070;-86
2021/10/13 11:43:42;;;;;;;2.38;0.75;;;8.40;99.90;;;;;;4937872;28;20038;-86
2021/10/13 11:46:16;;;;;;;0.70;0.70;;;8.50;99.90;;;;;;4937008;28;20057;-86
2021/10/13 11:48:42;;;;;;;1.63;1.25;;;8.60;99.90;;;;;;4936123;28;20035;-87
2021/10/13 11:51:15;;;;;;;0.90;0.70;;;8.70;99.90;;;;;;4923638;28;20034;-86
2021/10/13 11:53:47;;;;;;;1.60;0.70;;;8.80;99.90;;;;;;4956392;28;20105;-88
2021/10/13 11:56:13;;;;;;;0.60;0.60;;;8.80;99.90;;;;;;4950150;28;20032;-87
2021/10/13 11:58:40;;;;;;;0.88;0.73;;;8.80;99.90;;;;;;4953056;28;20081;-87
2021/10/13 12:01:06;;;;;;;0.77;0.75;;;8.80;99.90;;;;;;4938343;28;20073;-88
2021/10/13 12:03:37;;;;;;;1.20;0.75;;;8.70;99.90;;;;;;4953229;28;20030;-88
2021/10/13 12:06:05;;;;;;;1.70;0.80;;;8.80;99.90;;;;;;4929207;28;20039;-87
2021/10/13 12:08:36;;;;;;;1.00;0.75;;;8.90;99.90;;;;;;4972227;28;20030;-88
2021/10/13 12:11:12;;;;;;;0.90;0.70;;;9.00;99.90;;;;;;4953963;28;20034;-87
2021/10/13 12:13:48;;;;;;;1.83;0.70;;;8.90;99.90;;;;;;4951245;28;20572;-87
2021/10/13 12:16:20;;;;;;;0.70;0.70;;;9.00;99.90;;;;;;4952078;28;20604;-87
2021/10/13 12:18:47;;;;;;;0.82;0.60;;;9.00;99.90;;;;;;4958081;28;20042;-88
2021/10/13 12:21:18;;;;;;;0.77;0.60;;;9.20;99.90;;;;;;4926187;28;20046;-88
2021/10/13 12:23:48;;;;;;;0.77;0.65;;;9.30;99.90;;;;;;4939610;28;20601;-87
2021/10/13 12:26:20;;;;;;;1.48;0.60;;;9.30;99.90;;;;;;4951888;28;20049;-88
2021/10/13 12:28:50;;;;;;;0.57;0.57;;;9.40;99.90;;;;;;4951761;28;20034;-88
2021/10/13 12:31:21;;;;;;;4.20;0.50;;;9.40;99.90;;;;;;4953431;28;20077;-88
2021/10/13 12:34:02;;;;;;;1.15;0.50;;;9.40;99.90;;;;;;4954929;28;20594;-87
2021/10/13 12:36:35;;;;;;;2.10;0.60;;;9.50;99.90;;;;;;4935062;28;20070;-87
2021/10/13 12:39:11;;;;;;;0.40;0.38;;;9.50;99.90;;;;;;4947487;28;20039;-88
2021/10/13 12:41:39;;;;;;;0.85;0.60;;;9.50;99.90;;;;;;4935316;28;20038;-86
2021/10/13 12:44:14;;;;;;;1.45;0.55;;;9.50;99.90;;;;;;4942871;28;20050;-87
2021/10/13 12:46:53;;;;;;;0.50;0.43;;;9.50;99.90;;;;;;4922363;28;20039;-89
2021/10/13 12:49:22;;;;;;;0.50;0.40;;;9.40;99.90;;;;;;4938271;28;20405;-89
2021/10/13 12:51:53;;;;;;;3.60;0.90;;;9.30;99.90;;;;;;4943845;28;20027;-88
2021/10/13 12:54:21;;;;;;;0.68;0.57;;;9.30;99.90;;;;;;4950789;29;20027;-89
2021/10/13 12:56:47;;;;;;;0.85;0.65;;;9.30;99.90;;;;;;4923232;28;20045;-86
2021/10/13 12:59:13;;;;;;;0.90;0.50;;;9.30;99.90;;;;;;4918688;28;20039;-85
2021/10/13 13:01:39;;;;;;;1.65;0.52;;;9.20;99.90;;;;;;4936088;28;20418;-87
2021/10/13 13:04:04;;;;;;;0.95;0.45;;;9.30;99.90;;;;;;4919887;28;20049;-85
2021/10/13 13:06:30;;;;;;;0.28;0.28;;;9.30;99.90;;;;;;4923356;28;20050;-86